sensor_id;sensor_type;location;lat;lon;timestamp;temperature;humidity
15296;DHT22;7749;49.964;7.890;2023-06-14T00:02:26;18.50;1.00
15296;DHT22;7749;49.964;7.890;2023-06-14T00:04:53;18.50;1.00
15296;DHT22;7749;49.964;7.890;2023-06-14T00:07:38;18.40;1.00
15296;DHT22;7749;49.964;7.890;2023-06-14T00:18:35;18.00;99.90
15296;DHT22;7749;49.964;7.890;2023-06-14T00:21:03;18.00;99.90
15296;DHT22;7749;49.964;7.890;2023-06-14T00:23:52;17.90;99.90
15296;DHT22;7749;49.964;7.890;2023-06-14T00:29:34;17.80;99.90
15296;DHT22;7749;49.964;7.890;2023-06-14T00:32:02;17.70;99.90
15296;DHT22;7749;49.964;7.890;2023-06-14T00:34:30;17.60;1.00
15296;DHT22;7749;49.964;7.890;2023-06-14T00:36:57;17.60;1.00
15296;DHT22;7749;49.964;7.890;2023-06-14T00:39:25;17.50;1.00
15296;DHT22;7749;49.964;7.890;2023-06-14T00:41:52;17.50;1.00
15296;DHT22;7749;49.964;7.890;2023-06-14T00:44:20;17.40;1.00
15296;DHT22;7749;49.964;7.890;2023-06-14T00:46:49;17.40;1.00
15296;DHT22;7749;49.964;7.890;2023-06-14T00:49:18;17.30;1.00
15296;DHT22;7749;49.964;7.890;2023-06-14T00:51:46;17.30;1.00
15296;DHT22;7749;49.964;7.890;2023-06-14T00:54:14;17.20;1.00
15296;DHT22;7749;49.964;7.890;2023-06-14T00:56:44;17.20;1.00
15296;DHT22;7749;49.964;7.890;2023-06-14T00:59:12;17.10;1.00
15296;DHT22;7749;49.964;7.890;2023-06-14T01:01:46;17.10;1.00
15296;DHT22;7749;49.964;7.890;2023-06-14T01:04:14;17.10;1.00
15296;DHT22;7749;49.964;7.890;2023-06-14T01:07:02;17.20;1.00
15296;DHT22;7749;49.964;7.890;2023-06-14T01:09:58;17.10;1.00
15296;DHT22;7749;49.964;7.890;2023-06-14T01:12:44;17.00;46.00
15296;DHT22;7749;49.964;7.890;2023-06-14T01:15:16;17.10;1.00
15296;DHT22;7749;49.964;7.890;2023-06-14T01:17:45;17.00;1.00
15296;DHT22;7749;49.964;7.890;2023-06-14T01:20:15;17.00;1.00
15296;DHT22;7749;49.964;7.890;2023-06-14T01:22:54;17.10;1.00
15296;DHT22;7749;49.964;7.890;2023-06-14T01:25:22;17.10;1.00
15296;DHT22;7749;49.964;7.890;2023-06-14T01:28:00;17.10;99.90
15296;DHT22;7749;49.964;7.890;2023-06-14T01:30:30;17.00;1.00
15296;DHT22;7749;49.964;7.890;2023-06-14T01:33:01;16.90;99.90
15296;DHT22;7749;49.964;7.890;2023-06-14T01:35:29;16.70;1.00
15296;DHT22;7749;49.964;7.890;2023-06-14T01:37:58;16.60;44.50
15296;DHT22;7749;49.964;7.890;2023-06-14T01:40:27;16.50;1.00
15296;DHT22;7749;49.964;7.890;2023-06-14T01:42:55;16.40;99.90
15296;DHT22;7749;49.964;7.890;2023-06-14T01:45:23;16.30;99.90
15296;DHT22;7749;49.964;7.890;2023-06-14T01:47:51;16.30;99.90
15296;DHT22;7749;49.964;7.890;2023-06-14T01:50:20;16.20;1.00
15296;DHT22;7749;49.964;7.890;2023-06-14T01:52:48;16.20;1.00
15296;DHT22;7749;49.964;7.890;2023-06-14T01:55:15;16.20;99.90
15296;DHT22;7749;49.964;7.890;2023-06-14T01:57:45;16.30;1.00
15296;DHT22;7749;49.964;7.890;2023-06-14T02:00:14;16.40;1.00
15296;DHT22;7749;49.964;7.890;2023-06-14T02:02:42;16.50;99.90
15296;DHT22;7749;49.964;7.890;2023-06-14T02:05:10;16.60;99.90
15296;DHT22;7749;49.964;7.890;2023-06-14T02:07:37;16.60;1.00
15296;DHT22;7749;49.964;7.890;2023-06-14T02:10:05;16.60;1.00
15296;DHT22;7749;49.964;7.890;2023-06-14T02:12:33;16.60;1.00
15296;DHT22;7749;49.964;7.890;2023-06-14T02:15:00;16.50;1.00
15296;DHT22;7749;49.964;7.890;2023-06-14T02:17:28;16.40;99.90
15296;DHT22;7749;49.964;7.890;2023-06-14T02:19:56;16.40;99.90
15296;DHT22;7749;49.964;7.890;2023-06-14T02:22:24;16.30;1.00
15296;DHT22;7749;49.964;7.890;2023-06-14T02:24:52;16.30;1.00
15296;DHT22;7749;49.964;7.890;2023-06-14T02:27:28;16.10;99.90
15296;DHT22;7749;49.964;7.890;2023-06-14T02:29:55;16.10;65.20
15296;DHT22;7749;49.964;7.890;2023-06-14T02:32:23;16.30;99.90
15296;DHT22;7749;49.964;7.890;2023-06-14T02:34:50;16.20;1.00
15296;DHT22;7749;49.964;7.890;2023-06-14T02:37:18;16.20;99.90
15296;DHT22;7749;49.964;7.890;2023-06-14T02:39:46;16.10;99.90
15296;DHT22;7749;49.964;7.890;2023-06-14T02:42:13;15.90;1.00
15296;DHT22;7749;49.964;7.890;2023-06-14T02:44:41;15.80;99.90
15296;DHT22;7749;49.964;7.890;2023-06-14T02:47:08;15.80;1.00
15296;DHT22;7749;49.964;7.890;2023-06-14T02:49:36;15.70;99.90
15296;DHT22;7749;49.964;7.890;2023-06-14T02:52:04;15.60;1.00
15296;DHT22;7749;49.964;7.890;2023-06-14T02:54:32;15.30;1.00
15296;DHT22;7749;49.964;7.890;2023-06-14T02:56:59;15.30;1.00
15296;DHT22;7749;49.964;7.890;2023-06-14T02:59:27;15.50;1.00
15296;DHT22;7749;49.964;7.890;2023-06-14T03:01:54;15.60;1.00
15296;DHT22;7749;49.964;7.890;2023-06-14T03:04:22;15.70;1.00
15296;DHT22;7749;49.964;7.890;2023-06-14T03:06:49;15.70;99.90
15296;DHT22;7749;49.964;7.890;2023-06-14T03:09:17;15.60;99.90
15296;DHT22;7749;49.964;7.890;2023-06-14T03:11:46;15.40;1.00
15296;DHT22;7749;49.964;7.890;2023-06-14T03:14:13;15.30;99.90
15296;DHT22;7749;49.964;7.890;2023-06-14T03:16:41;15.20;1.00
15296;DHT22;7749;49.964;7.890;2023-06-14T03:19:09;15.20;1.00
15296;DHT22;7749;49.964;7.890;2023-06-14T03:21:36;15.20;99.90
15296;DHT22;7749;49.964;7.890;2023-06-14T03:24:04;15.10;1.00
15296;DHT22;7749;49.964;7.890;2023-06-14T03:26:32;15.10;1.00
15296;DHT22;7749;49.964;7.890;2023-06-14T03:29:01;15.00;99.90
15296;DHT22;7749;49.964;7.890;2023-06-14T03:31:31;15.10;99.90
15296;DHT22;7749;49.964;7.890;2023-06-14T03:34:01;15.10;1.00
15296;DHT22;7749;49.964;7.890;2023-06-14T03:36:28;15.10;1.00
15296;DHT22;7749;49.964;7.890;2023-06-14T03:38:56;15.10;99.90
15296;DHT22;7749;49.964;7.890;2023-06-14T03:41:26;15.10;1.00
15296;DHT22;7749;49.964;7.890;2023-06-14T03:43:54;15.10;1.00
15296;DHT22;7749;49.964;7.890;2023-06-14T03:46:21;15.20;1.00
15296;DHT22;7749;49.964;7.890;2023-06-14T03:48:49;15.10;1.00
15296;DHT22;7749;49.964;7.890;2023-06-14T03:51:16;15.20;99.90
15296;DHT22;7749;49.964;7.890;2023-06-14T03:53:44;15.30;99.90
15296;DHT22;7749;49.964;7.890;2023-06-14T03:56:31;15.30;1.00
15296;DHT22;7749;49.964;7.890;2023-06-14T03:58:59;15.40;1.00
15296;DHT22;7749;49.964;7.890;2023-06-14T04:01:27;15.50;1.00
15296;DHT22;7749;49.964;7.890;2023-06-14T04:03:57;15.40;91.70
15296;DHT22;7749;49.964;7.890;2023-06-14T04:06:25;15.50;99.90
15296;DHT22;7749;49.964;7.890;2023-06-14T04:09:00;15.30;99.90
15296;DHT22;7749;49.964;7.890;2023-06-14T04:11:31;15.10;13.10
15296;DHT22;7749;49.964;7.890;2023-06-14T04:13:59;15.10;1.00
15296;DHT22;7749;49.964;7.890;2023-06-14T04:16:27;15.10;99.90
15296;DHT22;7749;49.964;7.890;2023-06-14T04:18:55;15.00;1.00
15296;DHT22;7749;49.964;7.890;2023-06-14T04:21:23;15.00;99.90
15296;DHT22;7749;49.964;7.890;2023-06-14T04:23:50;15.10;99.90
15296;DHT22;7749;49.964;7.890;2023-06-14T04:26:21;15.20;1.00
15296;DHT22;7749;49.964;7.890;2023-06-14T04:28:53;15.20;1.00
15296;DHT22;7749;49.964;7.890;2023-06-14T04:31:24;15.20;99.90
15296;DHT22;7749;49.964;7.890;2023-06-14T04:33:52;15.20;1.00
15296;DHT22;7749;49.964;7.890;2023-06-14T04:36:21;15.20;1.00
15296;DHT22;7749;49.964;7.890;2023-06-14T04:38:48;15.30;99.90
15296;DHT22;7749;49.964;7.890;2023-06-14T04:41:16;15.40;1.00
15296;DHT22;7749;49.964;7.890;2023-06-14T04:43:45;15.50;1.00
15296;DHT22;7749;49.964;7.890;2023-06-14T04:46:16;15.60;1.00
15296;DHT22;7749;49.964;7.890;2023-06-14T04:48:44;15.50;1.00
15296;DHT22;7749;49.964;7.890;2023-06-14T04:51:13;15.50;99.90
15296;DHT22;7749;49.964;7.890;2023-06-14T04:53:40;15.40;99.90
15296;DHT22;7749;49.964;7.890;2023-06-14T04:56:08;15.40;1.00
15296;DHT22;7749;49.964;7.890;2023-06-14T04:58:35;15.40;1.00
15296;DHT22;7749;49.964;7.890;2023-06-14T05:01:03;15.50;21.00
15296;DHT22;7749;49.964;7.890;2023-06-14T05:03:31;15.50;1.00
15296;DHT22;7749;49.964;7.890;2023-06-14T05:05:59;15.50;79.80
15296;DHT22;7749;49.964;7.890;2023-06-14T05:08:27;15.60;1.00
15296;DHT22;7749;49.964;7.890;2023-06-14T05:10:55;15.70;4.60
15296;DHT22;7749;49.964;7.890;2023-06-14T05:13:23;15.90;99.90
15296;DHT22;7749;49.964;7.890;2023-06-14T05:15:50;15.80;1.00
15296;DHT22;7749;49.964;7.890;2023-06-14T05:18:18;15.80;99.90
15296;DHT22;7749;49.964;7.890;2023-06-14T05:20:46;16.00;1.00
15296;DHT22;7749;49.964;7.890;2023-06-14T05:23:13;16.10;1.00
15296;DHT22;7749;49.964;7.890;2023-06-14T05:25:43;16.20;1.00
15296;DHT22;7749;49.964;7.890;2023-06-14T05:28:13;16.30;1.00
15296;DHT22;7749;49.964;7.890;2023-06-14T05:30:40;16.40;99.90
15296;DHT22;7749;49.964;7.890;2023-06-14T05:33:08;16.60;99.90
15296;DHT22;7749;49.964;7.890;2023-06-14T05:35:36;16.60;99.90
15296;DHT22;7749;49.964;7.890;2023-06-14T05:38:05;16.80;70.60
15296;DHT22;7749;49.964;7.890;2023-06-14T05:40:34;16.50;99.90
15296;DHT22;7749;49.964;7.890;2023-06-14T05:43:02;16.70;63.80
15296;DHT22;7749;49.964;7.890;2023-06-14T05:45:29;16.80;99.90
15296;DHT22;7749;49.964;7.890;2023-06-14T05:47:57;16.90;1.00
15296;DHT22;7749;49.964;7.890;2023-06-14T05:50:25;17.00;99.90
15296;DHT22;7749;49.964;7.890;2023-06-14T05:52:53;17.30;1.00
15296;DHT22;7749;49.964;7.890;2023-06-14T05:55:21;17.30;99.90
15296;DHT22;7749;49.964;7.890;2023-06-14T05:57:49;17.50;52.90
15296;DHT22;7749;49.964;7.890;2023-06-14T06:00:16;17.50;11.80
15296;DHT22;7749;49.964;7.890;2023-06-14T06:02:45;17.60;1.00
15296;DHT22;7749;49.964;7.890;2023-06-14T06:05:13;17.60;1.00
15296;DHT22;7749;49.964;7.890;2023-06-14T06:07:43;17.70;1.00
15296;DHT22;7749;49.964;7.890;2023-06-14T06:10:13;17.80;1.00
15296;DHT22;7749;49.964;7.890;2023-06-14T06:12:42;17.90;1.00
15296;DHT22;7749;49.964;7.890;2023-06-14T06:15:10;18.00;1.00
15296;DHT22;7749;49.964;7.890;2023-06-14T06:17:40;18.00;1.00
15296;DHT22;7749;49.964;7.890;2023-06-14T06:20:23;18.10;1.00
15296;DHT22;7749;49.964;7.890;2023-06-14T06:22:58;18.10;1.00
15296;DHT22;7749;49.964;7.890;2023-06-14T06:25:26;18.20;99.90
15296;DHT22;7749;49.964;7.890;2023-06-14T06:27:55;18.30;99.90
15296;DHT22;7749;49.964;7.890;2023-06-14T06:30:25;18.30;99.90
15296;DHT22;7749;49.964;7.890;2023-06-14T06:32:53;18.50;99.90
15296;DHT22;7749;49.964;7.890;2023-06-14T06:35:21;18.60;99.90
15296;DHT22;7749;49.964;7.890;2023-06-14T06:37:48;18.80;99.90
15296;DHT22;7749;49.964;7.890;2023-06-14T06:40:16;18.90;99.90
15296;DHT22;7749;49.964;7.890;2023-06-14T06:42:43;19.10;34.10
15296;DHT22;7749;49.964;7.890;2023-06-14T06:45:11;19.10;1.00
15296;DHT22;7749;49.964;7.890;2023-06-14T06:47:39;19.20;1.00
15296;DHT22;7749;49.964;7.890;2023-06-14T06:50:06;19.10;1.00
15296;DHT22;7749;49.964;7.890;2023-06-14T06:52:35;19.30;1.00
15296;DHT22;7749;49.964;7.890;2023-06-14T06:55:02;19.40;1.00
15296;DHT22;7749;49.964;7.890;2023-06-14T06:57:30;19.70;1.00
15296;DHT22;7749;49.964;7.890;2023-06-14T06:59:57;19.80;1.00
15296;DHT22;7749;49.964;7.890;2023-06-14T07:02:25;20.00;1.00
15296;DHT22;7749;49.964;7.890;2023-06-14T07:04:52;20.30;1.00
15296;DHT22;7749;49.964;7.890;2023-06-14T07:07:20;20.60;1.00
15296;DHT22;7749;49.964;7.890;2023-06-14T07:09:47;20.80;1.00
15296;DHT22;7749;49.964;7.890;2023-06-14T07:12:15;20.70;1.00
15296;DHT22;7749;49.964;7.890;2023-06-14T07:14:43;20.70;1.00
15296;DHT22;7749;49.964;7.890;2023-06-14T07:17:10;20.60;1.00
15296;DHT22;7749;49.964;7.890;2023-06-14T07:19:38;20.60;1.00
15296;DHT22;7749;49.964;7.890;2023-06-14T07:22:05;20.90;1.00
15296;DHT22;7749;49.964;7.890;2023-06-14T07:24:33;21.20;1.00
15296;DHT22;7749;49.964;7.890;2023-06-14T07:27:03;21.40;1.00
15296;DHT22;7749;49.964;7.890;2023-06-14T07:29:31;21.60;1.00
15296;DHT22;7749;49.964;7.890;2023-06-14T07:31:58;21.60;99.90
15296;DHT22;7749;49.964;7.890;2023-06-14T07:34:26;21.70;99.90
15296;DHT22;7749;49.964;7.890;2023-06-14T07:36:54;21.90;99.90
15296;DHT22;7749;49.964;7.890;2023-06-14T07:39:21;22.00;99.90
15296;DHT22;7749;49.964;7.890;2023-06-14T07:41:49;22.30;99.90
15296;DHT22;7749;49.964;7.890;2023-06-14T07:44:17;22.40;99.90
15296;DHT22;7749;49.964;7.890;2023-06-14T07:46:45;22.50;99.90
15296;DHT22;7749;49.964;7.890;2023-06-14T07:49:13;22.60;99.90
15296;DHT22;7749;49.964;7.890;2023-06-14T07:51:41;22.70;99.90
15296;DHT22;7749;49.964;7.890;2023-06-14T07:54:09;22.80;99.90
15296;DHT22;7749;49.964;7.890;2023-06-14T07:56:36;22.80;99.90
15296;DHT22;7749;49.964;7.890;2023-06-14T07:59:03;22.70;99.90
15296;DHT22;7749;49.964;7.890;2023-06-14T08:01:33;22.90;99.90
15296;DHT22;7749;49.964;7.890;2023-06-14T08:04:01;22.90;99.90
15296;DHT22;7749;49.964;7.890;2023-06-14T08:06:29;22.90;99.90
15296;DHT22;7749;49.964;7.890;2023-06-14T08:08:57;22.90;99.90
15296;DHT22;7749;49.964;7.890;2023-06-14T08:11:25;23.00;99.90
15296;DHT22;7749;49.964;7.890;2023-06-14T08:13:52;23.10;99.90
15296;DHT22;7749;49.964;7.890;2023-06-14T08:16:20;23.00;99.90
15296;DHT22;7749;49.964;7.890;2023-06-14T08:18:48;23.10;99.90
15296;DHT22;7749;49.964;7.890;2023-06-14T08:21:15;23.00;99.90
15296;DHT22;7749;49.964;7.890;2023-06-14T08:23:43;23.10;99.90
15296;DHT22;7749;49.964;7.890;2023-06-14T08:26:11;23.10;99.90
15296;DHT22;7749;49.964;7.890;2023-06-14T08:28:38;23.30;99.90
15296;DHT22;7749;49.964;7.890;2023-06-14T08:31:05;23.50;99.90
15296;DHT22;7749;49.964;7.890;2023-06-14T08:33:33;23.60;99.90
15296;DHT22;7749;49.964;7.890;2023-06-14T08:36:02;23.60;99.90
15296;DHT22;7749;49.964;7.890;2023-06-14T08:38:29;23.70;99.90
15296;DHT22;7749;49.964;7.890;2023-06-14T08:40:57;23.70;99.90
15296;DHT22;7749;49.964;7.890;2023-06-14T08:43:25;23.80;99.90
15296;DHT22;7749;49.964;7.890;2023-06-14T08:46:03;23.80;99.90
15296;DHT22;7749;49.964;7.890;2023-06-14T08:48:31;23.70;99.90
15296;DHT22;7749;49.964;7.890;2023-06-14T08:51:01;23.80;99.90
15296;DHT22;7749;49.964;7.890;2023-06-14T08:53:31;23.90;99.90
15296;DHT22;7749;49.964;7.890;2023-06-14T08:56:05;24.00;99.90
15296;DHT22;7749;49.964;7.890;2023-06-14T08:58:34;24.10;99.90
15296;DHT22;7749;49.964;7.890;2023-06-14T09:01:03;24.30;99.90
15296;DHT22;7749;49.964;7.890;2023-06-14T09:03:32;24.30;99.90
15296;DHT22;7749;49.964;7.890;2023-06-14T09:06:00;24.30;99.90
15296;DHT22;7749;49.964;7.890;2023-06-14T09:08:28;24.30;99.90
15296;DHT22;7749;49.964;7.890;2023-06-14T09:10:57;24.40;99.90
15296;DHT22;7749;49.964;7.890;2023-06-14T09:13:26;24.20;99.90
15296;DHT22;7749;49.964;7.890;2023-06-14T09:15:58;24.10;99.90
15296;DHT22;7749;49.964;7.890;2023-06-14T09:18:35;24.20;99.90
15296;DHT22;7749;49.964;7.890;2023-06-14T09:21:07;24.30;99.90
15296;DHT22;7749;49.964;7.890;2023-06-14T09:23:39;24.30;99.90
15296;DHT22;7749;49.964;7.890;2023-06-14T09:26:08;24.30;99.90
15296;DHT22;7749;49.964;7.890;2023-06-14T09:28:40;24.20;99.90
15296;DHT22;7749;49.964;7.890;2023-06-14T09:31:08;24.30;99.90
15296;DHT22;7749;49.964;7.890;2023-06-14T09:33:37;24.20;99.90
15296;DHT22;7749;49.964;7.890;2023-06-14T09:36:10;24.20;99.90
15296;DHT22;7749;49.964;7.890;2023-06-14T09:38:40;24.20;99.90
15296;DHT22;7749;49.964;7.890;2023-06-14T09:41:08;24.40;99.90
15296;DHT22;7749;49.964;7.890;2023-06-14T09:43:36;24.20;99.90
15296;DHT22;7749;49.964;7.890;2023-06-14T09:46:06;24.40;99.90
15296;DHT22;7749;49.964;7.890;2023-06-14T09:48:35;24.50;99.90
15296;DHT22;7749;49.964;7.890;2023-06-14T09:51:03;24.70;99.90
15296;DHT22;7749;49.964;7.890;2023-06-14T09:53:35;24.70;99.90
15296;DHT22;7749;49.964;7.890;2023-06-14T09:56:05;24.90;99.90
15296;DHT22;7749;49.964;7.890;2023-06-14T09:58:35;25.10;99.90
15296;DHT22;7749;49.964;7.890;2023-06-14T10:01:08;25.40;99.90
15296;DHT22;7749;49.964;7.890;2023-06-14T10:03:38;25.60;99.90
15296;DHT22;7749;49.964;7.890;2023-06-14T10:06:29;25.80;99.90
15296;DHT22;7749;49.964;7.890;2023-06-14T10:08:58;26.30;99.90
15296;DHT22;7749;49.964;7.890;2023-06-14T10:11:29;26.60;99.90
15296;DHT22;7749;49.964;7.890;2023-06-14T10:13:57;26.60;99.90
15296;DHT22;7749;49.964;7.890;2023-06-14T10:16:56;26.70;99.90
15296;DHT22;7749;49.964;7.890;2023-06-14T10:19:34;26.80;98.30
15296;DHT22;7749;49.964;7.890;2023-06-14T10:22:17;27.00;95.60
15296;DHT22;7749;49.964;7.890;2023-06-14T10:24:46;27.20;93.40
15296;DHT22;7749;49.964;7.890;2023-06-14T10:27:15;27.30;92.00
15296;DHT22;7749;49.964;7.890;2023-06-14T10:32:22;27.10;90.30
15296;DHT22;7749;49.964;7.890;2023-06-14T10:35:06;27.30;87.30
15296;DHT22;7749;49.964;7.890;2023-06-14T10:37:36;27.50;87.30
15296;DHT22;7749;49.964;7.890;2023-06-14T10:40:05;27.50;86.50
15296;DHT22;7749;49.964;7.890;2023-06-14T10:42:36;27.80;83.00
15296;DHT22;7749;49.964;7.890;2023-06-14T10:45:04;27.90;75.10
15296;DHT22;7749;49.964;7.890;2023-06-14T10:47:36;27.90;76.40
15296;DHT22;7749;49.964;7.890;2023-06-14T10:52:41;28.20;71.20
15296;DHT22;7749;49.964;7.890;2023-06-14T10:55:16;28.20;71.40
15296;DHT22;7749;49.964;7.890;2023-06-14T10:57:55;28.60;61.60
15296;DHT22;7749;49.964;7.890;2023-06-14T11:00:27;28.80;60.10
15296;DHT22;7749;49.964;7.890;2023-06-14T11:11:10;29.00;43.00
15296;DHT22;7749;49.964;7.890;2023-06-14T11:13:44;28.60;46.00
15296;DHT22;7749;49.964;7.890;2023-06-14T11:16:15;29.10;42.70
15296;DHT22;7749;49.964;7.890;2023-06-14T11:18:44;30.00;35.10
15296;DHT22;7749;49.964;7.890;2023-06-14T11:21:16;30.30;26.90
15296;DHT22;7749;49.964;7.890;2023-06-14T11:23:51;30.30;23.10
15296;DHT22;7749;49.964;7.890;2023-06-14T11:26:29;30.70;22.10
15296;DHT22;7749;49.964;7.890;2023-06-14T11:28:59;32.80;5.00
15296;DHT22;7749;49.964;7.890;2023-06-14T11:31:27;34.80;1.00
15296;DHT22;7749;49.964;7.890;2023-06-14T11:33:59;36.30;1.00
15296;DHT22;7749;49.964;7.890;2023-06-14T11:36:28;37.10;1.00
15296;DHT22;7749;49.964;7.890;2023-06-14T11:38:59;37.60;1.00
15296;DHT22;7749;49.964;7.890;2023-06-14T11:41:33;36.60;1.00
15296;DHT22;7749;49.964;7.890;2023-06-14T11:44:01;35.10;1.00
15296;DHT22;7749;49.964;7.890;2023-06-14T11:46:30;33.60;1.00
15296;DHT22;7749;49.964;7.890;2023-06-14T11:48:57;34.20;1.00
15296;DHT22;7749;49.964;7.890;2023-06-14T11:51:25;35.00;1.00
15296;DHT22;7749;49.964;7.890;2023-06-14T11:53:53;36.20;1.00
15296;DHT22;7749;49.964;7.890;2023-06-14T11:56:20;36.90;1.00
15296;DHT22;7749;49.964;7.890;2023-06-14T11:58:48;38.20;1.00
15296;DHT22;7749;49.964;7.890;2023-06-14T12:01:19;39.20;1.00
15296;DHT22;7749;49.964;7.890;2023-06-14T12:03:50;39.20;1.00
15296;DHT22;7749;49.964;7.890;2023-06-14T12:06:26;38.70;1.00
15296;DHT22;7749;49.964;7.890;2023-06-14T12:08:56;38.80;1.00
15296;DHT22;7749;49.964;7.890;2023-06-14T12:11:31;38.40;1.00
15296;DHT22;7749;49.964;7.890;2023-06-14T12:13:59;39.10;1.00
15296;DHT22;7749;49.964;7.890;2023-06-14T12:16:36;38.70;1.00
15296;DHT22;7749;49.964;7.890;2023-06-14T12:19:09;37.30;1.00
15296;DHT22;7749;49.964;7.890;2023-06-14T12:21:40;34.70;1.00
15296;DHT22;7749;49.964;7.890;2023-06-14T12:24:09;34.60;1.00
15296;DHT22;7749;49.964;7.890;2023-06-14T12:26:40;36.20;1.00
15296;DHT22;7749;49.964;7.890;2023-06-14T12:29:08;37.80;1.00
15296;DHT22;7749;49.964;7.890;2023-06-14T12:31:36;39.20;1.00
15296;DHT22;7749;49.964;7.890;2023-06-14T12:34:03;39.80;1.00
15296;DHT22;7749;49.964;7.890;2023-06-14T12:36:31;38.10;1.00
15296;DHT22;7749;49.964;7.890;2023-06-14T12:38:59;36.80;1.00
15296;DHT22;7749;49.964;7.890;2023-06-14T12:41:27;37.60;1.00
15296;DHT22;7749;49.964;7.890;2023-06-14T12:43:55;38.30;1.00
15296;DHT22;7749;49.964;7.890;2023-06-14T12:46:25;39.10;1.00
15296;DHT22;7749;49.964;7.890;2023-06-14T12:48:53;39.60;1.00
15296;DHT22;7749;49.964;7.890;2023-06-14T12:51:20;39.40;1.00
15296;DHT22;7749;49.964;7.890;2023-06-14T12:53:48;40.70;1.00
15296;DHT22;7749;49.964;7.890;2023-06-14T12:56:16;41.20;1.00
15296;DHT22;7749;49.964;7.890;2023-06-14T12:58:43;41.90;1.00
15296;DHT22;7749;49.964;7.890;2023-06-14T13:01:11;40.70;1.00
15296;DHT22;7749;49.964;7.890;2023-06-14T13:03:38;40.00;1.00
15296;DHT22;7749;49.964;7.890;2023-06-14T13:06:06;40.70;1.00
15296;DHT22;7749;49.964;7.890;2023-06-14T13:08:34;41.90;1.00
15296;DHT22;7749;49.964;7.890;2023-06-14T13:11:01;41.70;1.00
15296;DHT22;7749;49.964;7.890;2023-06-14T13:13:29;42.30;1.00
15296;DHT22;7749;49.964;7.890;2023-06-14T13:15:56;42.40;1.00
15296;DHT22;7749;49.964;7.890;2023-06-14T13:18:24;41.60;1.00
15296;DHT22;7749;49.964;7.890;2023-06-14T13:20:51;41.90;1.00
15296;DHT22;7749;49.964;7.890;2023-06-14T13:23:19;41.60;1.00
15296;DHT22;7749;49.964;7.890;2023-06-14T13:28:49;41.10;1.00
15296;DHT22;7749;49.964;7.890;2023-06-14T13:31:18;40.10;1.00
15296;DHT22;7749;49.964;7.890;2023-06-14T13:33:46;39.90;1.00
15296;DHT22;7749;49.964;7.890;2023-06-14T13:36:13;40.60;1.00
15296;DHT22;7749;49.964;7.890;2023-06-14T13:38:41;40.60;1.00
15296;DHT22;7749;49.964;7.890;2023-06-14T13:41:09;40.70;1.00
15296;DHT22;7749;49.964;7.890;2023-06-14T13:43:36;41.70;1.00
15296;DHT22;7749;49.964;7.890;2023-06-14T13:46:04;41.90;1.00
15296;DHT22;7749;49.964;7.890;2023-06-14T13:48:31;42.30;1.00
15296;DHT22;7749;49.964;7.890;2023-06-14T13:51:02;42.50;1.00
15296;DHT22;7749;49.964;7.890;2023-06-14T13:53:31;42.30;1.00
15296;DHT22;7749;49.964;7.890;2023-06-14T13:55:58;41.80;1.00
15296;DHT22;7749;49.964;7.890;2023-06-14T13:58:26;42.30;1.00
15296;DHT22;7749;49.964;7.890;2023-06-14T14:00:53;42.10;1.00
15296;DHT22;7749;49.964;7.890;2023-06-14T14:03:21;42.50;1.00
15296;DHT22;7749;49.964;7.890;2023-06-14T14:05:49;42.10;1.00
15296;DHT22;7749;49.964;7.890;2023-06-14T14:08:16;41.70;1.00
15296;DHT22;7749;49.964;7.890;2023-06-14T14:10:44;41.70;1.00
15296;DHT22;7749;49.964;7.890;2023-06-14T14:13:12;42.10;1.00
15296;DHT22;7749;49.964;7.890;2023-06-14T14:15:40;42.90;1.00
15296;DHT22;7749;49.964;7.890;2023-06-14T14:18:07;43.20;1.00
15296;DHT22;7749;49.964;7.890;2023-06-14T14:20:35;43.60;1.00
15296;DHT22;7749;49.964;7.890;2023-06-14T14:23:03;44.20;1.00
15296;DHT22;7749;49.964;7.890;2023-06-14T14:25:30;44.00;1.00
15296;DHT22;7749;49.964;7.890;2023-06-14T14:27:58;44.20;1.00
15296;DHT22;7749;49.964;7.890;2023-06-14T14:30:25;44.10;1.00
15296;DHT22;7749;49.964;7.890;2023-06-14T14:32:53;43.70;1.00
15296;DHT22;7749;49.964;7.890;2023-06-14T14:35:21;44.30;1.00
15296;DHT22;7749;49.964;7.890;2023-06-14T14:37:52;44.30;1.00
15296;DHT22;7749;49.964;7.890;2023-06-14T14:40:22;44.50;1.00
15296;DHT22;7749;49.964;7.890;2023-06-14T14:42:49;42.90;1.00
15296;DHT22;7749;49.964;7.890;2023-06-14T14:45:17;40.10;1.00
15296;DHT22;7749;49.964;7.890;2023-06-14T14:47:45;37.90;1.00
15296;DHT22;7749;49.964;7.890;2023-06-14T14:50:12;37.10;1.00
15296;DHT22;7749;49.964;7.890;2023-06-14T14:52:40;38.20;1.00
15296;DHT22;7749;49.964;7.890;2023-06-14T14:55:08;39.50;1.00
15296;DHT22;7749;49.964;7.890;2023-06-14T14:57:35;40.60;1.00
15296;DHT22;7749;49.964;7.890;2023-06-14T15:00:04;41.00;1.00
15296;DHT22;7749;49.964;7.890;2023-06-14T15:02:33;41.50;1.00
15296;DHT22;7749;49.964;7.890;2023-06-14T15:05:00;41.70;1.00
15296;DHT22;7749;49.964;7.890;2023-06-14T15:07:34;41.60;1.00
15296;DHT22;7749;49.964;7.890;2023-06-14T15:10:02;39.90;1.00
15296;DHT22;7749;49.964;7.890;2023-06-14T15:12:30;37.10;1.00
15296;DHT22;7749;49.964;7.890;2023-06-14T15:14:57;35.20;1.00
15296;DHT22;7749;49.964;7.890;2023-06-14T15:17:24;34.00;1.00
15296;DHT22;7749;49.964;7.890;2023-06-14T15:19:52;33.00;1.00
15296;DHT22;7749;49.964;7.890;2023-06-14T15:22:20;32.30;1.00
15296;DHT22;7749;49.964;7.890;2023-06-14T15:24:47;32.30;1.00
15296;DHT22;7749;49.964;7.890;2023-06-14T15:27:17;33.80;1.00
15296;DHT22;7749;49.964;7.890;2023-06-14T15:29:44;36.50;1.00
15296;DHT22;7749;49.964;7.890;2023-06-14T15:32:16;38.00;1.00
15296;DHT22;7749;49.964;7.890;2023-06-14T15:34:43;38.90;1.00
15296;DHT22;7749;49.964;7.890;2023-06-14T15:37:10;39.80;1.00
15296;DHT22;7749;49.964;7.890;2023-06-14T15:39:38;40.60;1.00
15296;DHT22;7749;49.964;7.890;2023-06-14T15:42:06;40.90;1.00
15296;DHT22;7749;49.964;7.890;2023-06-14T15:44:34;41.50;1.00
15296;DHT22;7749;49.964;7.890;2023-06-14T15:47:03;41.60;1.00
15296;DHT22;7749;49.964;7.890;2023-06-14T15:49:31;42.30;1.00
15296;DHT22;7749;49.964;7.890;2023-06-14T15:51:58;42.10;1.00
15296;DHT22;7749;49.964;7.890;2023-06-14T15:54:26;40.80;1.00
15296;DHT22;7749;49.964;7.890;2023-06-14T15:56:53;40.60;1.00
15296;DHT22;7749;49.964;7.890;2023-06-14T15:59:21;41.00;1.00
15296;DHT22;7749;49.964;7.890;2023-06-14T16:01:48;40.90;1.00
15296;DHT22;7749;49.964;7.890;2023-06-14T16:04:16;40.90;1.00
15296;DHT22;7749;49.964;7.890;2023-06-14T16:06:44;41.20;1.00
15296;DHT22;7749;49.964;7.890;2023-06-14T16:09:11;41.50;1.00
15296;DHT22;7749;49.964;7.890;2023-06-14T16:11:39;41.10;1.00
15296;DHT22;7749;49.964;7.890;2023-06-14T16:14:06;41.20;1.00
15296;DHT22;7749;49.964;7.890;2023-06-14T16:16:34;41.40;1.00
15296;DHT22;7749;49.964;7.890;2023-06-14T16:19:01;39.50;1.00
15296;DHT22;7749;49.964;7.890;2023-06-14T16:21:29;37.00;1.00
15296;DHT22;7749;49.964;7.890;2023-06-14T16:24:03;34.90;1.00
15296;DHT22;7749;49.964;7.890;2023-06-14T16:26:30;33.90;1.00
15296;DHT22;7749;49.964;7.890;2023-06-14T16:28:58;34.00;1.00
15296;DHT22;7749;49.964;7.890;2023-06-14T16:31:25;35.40;1.00
15296;DHT22;7749;49.964;7.890;2023-06-14T16:33:53;36.80;1.00
15296;DHT22;7749;49.964;7.890;2023-06-14T16:36:24;37.80;1.00